createdAt,value
2019-03-22T00:01:42.954Z,11.27
2019-03-22T00:04:47.059Z,9.73
2019-03-22T00:07:50.813Z,9.37
2019-03-22T00:10:55.432Z,8.60
2019-03-22T00:13:59.504Z,8.50
2019-03-22T00:17:03.211Z,8.20
2019-03-22T00:20:08.148Z,8.03
2019-03-22T00:23:12.707Z,8.50
2019-03-22T00:26:16.434Z,9.20
2019-03-22T00:29:20.468Z,7.87
2019-03-22T00:32:24.179Z,7.27
2019-03-22T00:35:27.902Z,9.43
2019-03-22T00:38:31.604Z,7.70
2019-03-22T00:41:35.619Z,8.87
2019-03-22T00:44:39.619Z,7.40
2019-03-22T00:47:43.648Z,8.57
2019-03-22T00:50:47.397Z,8.43
2019-03-22T00:53:51.143Z,8.63
2019-03-22T00:56:56.192Z,8.57
2019-03-22T00:59:59.901Z,8.07
2019-03-22T01:03:04.077Z,7.67
2019-03-22T01:06:09.650Z,9.00
2019-03-22T01:09:13.359Z,9.13
2019-03-22T01:12:17.486Z,9.17
2019-03-22T01:15:21.197Z,9.17
2019-03-22T01:18:25.023Z,8.17
2019-03-22T01:21:29.237Z,8.50
2019-03-22T01:24:34.366Z,8.53
2019-03-22T01:27:40.593Z,6.83
2019-03-22T01:30:47.200Z,7.93
2019-03-22T01:33:50.921Z,8.47
2019-03-22T01:36:55.101Z,7.80
2019-03-22T01:39:58.827Z,7.70
2019-03-22T01:43:02.944Z,7.20
2019-03-22T01:46:06.631Z,6.50
2019-03-22T01:49:10.358Z,7.97
2019-03-22T01:52:14.108Z,7.17
2019-03-22T01:55:18.171Z,7.40
2019-03-22T01:58:22.352Z,7.20
2019-03-22T02:01:26.083Z,7.30
2019-03-22T02:04:29.806Z,8.50
2019-03-22T02:07:33.552Z,9.67
2019-03-22T02:10:37.771Z,6.60
2019-03-22T02:13:41.893Z,8.17
2019-03-22T02:16:46.276Z,7.40
2019-03-22T02:19:50.419Z,7.93
2019-03-22T02:22:54.256Z,8.27
2019-03-22T02:25:58.476Z,8.13
2019-03-22T02:29:02.558Z,8.27
2019-03-22T02:32:07.038Z,8.20
2019-03-22T02:35:26.925Z,8.00
2019-03-22T02:38:16.699Z,6.90
2019-03-22T02:41:20.756Z,6.60
2019-03-22T02:44:25.581Z,7.40
2019-03-22T02:47:29.277Z,6.80
2019-03-22T02:50:34.450Z,8.60
2019-03-22T02:53:38.544Z,7.90
2019-03-22T02:56:42.990Z,7.17
2019-03-22T02:59:47.426Z,7.70
2019-03-22T03:02:51.503Z,7.60
2019-03-22T03:05:55.272Z,6.77
2019-03-22T03:09:00.092Z,8.40
2019-03-22T03:12:03.934Z,6.70
2019-03-22T03:15:09.735Z,6.80
2019-03-22T03:18:14.105Z,6.30
2019-03-22T03:21:17.847Z,7.90
2019-03-22T03:24:21.970Z,7.23
2019-03-22T03:27:26.059Z,8.00
2019-03-22T03:30:29.870Z,7.47
2019-03-22T03:33:33.998Z,7.77
2019-03-22T03:36:37.749Z,7.40
2019-03-22T03:39:42.481Z,7.00
2019-03-22T03:42:46.207Z,6.53
2019-03-22T03:45:51.023Z,6.50
2019-03-22T03:48:55.085Z,7.03
2019-03-22T03:51:58.806Z,8.87
2019-03-22T03:55:04.368Z,7.33
2019-03-22T03:58:09.077Z,6.77
2019-03-22T04:01:13.137Z,6.63
2019-03-22T04:04:17.319Z,8.07
2019-03-22T04:07:21.021Z,6.50
2019-03-22T04:10:24.742Z,8.53
2019-03-22T04:13:29.633Z,6.90
2019-03-22T04:16:33.376Z,5.63
2019-03-22T04:19:37.069Z,6.67
2019-03-22T04:22:41.158Z,7.30
2019-03-22T04:25:45.213Z,6.70
2019-03-22T04:28:49.683Z,6.60
2019-03-22T04:31:53.530Z,6.73
2019-03-22T04:34:57.600Z,7.43
2019-03-22T04:38:01.763Z,6.50
2019-03-22T04:41:06.661Z,6.97
2019-03-22T04:44:10.408Z,6.77
2019-03-22T04:47:19.424Z,7.37
2019-03-22T04:50:26.243Z,6.43
2019-03-22T04:53:39.719Z,7.13
2019-03-22T04:56:44.519Z,7.73
2019-03-22T04:59:52.060Z,7.27
2019-03-22T05:02:56.281Z,7.17
2019-03-22T05:06:02.783Z,7.30
2019-03-22T05:09:13.804Z,7.37
2019-03-22T05:12:21.328Z,7.60
2019-03-22T05:15:25.555Z,5.93
2019-03-22T05:18:32.383Z,6.37
2019-03-22T05:21:37.040Z,6.27
2019-03-22T05:24:43.653Z,7.27
2019-03-22T05:27:50.899Z,6.67
2019-03-22T05:31:31.253Z,5.20
2019-03-22T05:34:34.972Z,6.03
2019-03-22T05:37:38.743Z,6.73
2019-03-22T05:40:42.455Z,5.50
2019-03-22T05:43:46.244Z,6.17
2019-03-22T05:46:50.380Z,5.77
2019-03-22T05:49:54.108Z,5.03
2019-03-22T05:52:57.808Z,6.17
2019-03-22T05:56:01.534Z,6.50
2019-03-22T05:59:05.602Z,5.10
2019-03-22T06:02:09.308Z,5.00
2019-03-22T06:05:13.032Z,6.37
2019-03-22T06:08:16.744Z,6.17
2019-03-22T06:11:21.229Z,6.07
2019-03-22T06:14:25.227Z,6.23
2019-03-22T06:17:29.638Z,5.70
2019-03-22T06:20:33.735Z,6.20
2019-03-22T06:23:37.460Z,5.67
2019-03-22T06:26:41.292Z,5.10
2019-03-22T06:29:54.024Z,6.23
2019-03-22T06:32:52.315Z,6.30
2019-03-22T06:35:57.339Z,6.03
2019-03-22T06:39:01.763Z,4.10
2019-03-22T06:42:07.211Z,4.57
2019-03-22T06:45:11.877Z,6.40
2019-03-22T06:48:15.577Z,6.17
2019-03-22T06:51:19.315Z,7.30
2019-03-22T06:54:31.448Z,5.90
2019-03-22T06:57:29.088Z,6.10
2019-03-22T07:00:33.372Z,6.40
2019-03-22T07:03:37.954Z,5.20
2019-03-22T07:06:42.051Z,6.23
2019-03-22T07:09:46.086Z,6.80
2019-03-22T07:12:50.178Z,6.00
2019-03-22T07:15:54.333Z,6.87
2019-03-22T07:18:59.046Z,8.00
2019-03-22T07:22:03.150Z,7.07
2019-03-22T07:25:07.376Z,5.77
2019-03-22T07:28:12.044Z,6.87
2019-03-22T07:31:16.096Z,6.83
2019-03-22T07:34:19.815Z,7.10
2019-03-22T07:37:23.889Z,7.63
2019-03-22T07:40:28.323Z,7.03
2019-03-22T07:43:32.365Z,6.70
2019-03-22T07:46:36.087Z,7.40
2019-03-22T07:49:40.648Z,8.53
2019-03-22T07:52:44.376Z,8.17
2019-03-22T07:55:48.444Z,8.10
2019-03-22T07:58:52.165Z,11.57
2019-03-22T08:01:56.268Z,10.17
2019-03-22T08:05:01.611Z,11.50
2019-03-22T08:08:05.324Z,8.93
2019-03-22T08:11:09.425Z,9.00
2019-03-22T08:14:16.319Z,8.33
2019-03-22T08:17:20.249Z,10.10
2019-03-22T08:20:24.109Z,8.43
2019-03-22T08:23:28.358Z,8.50
2019-03-22T08:26:33.572Z,8.63
2019-03-22T08:29:38.283Z,9.33
2019-03-22T08:32:42.856Z,9.30
2019-03-22T08:35:46.568Z,7.97
2019-03-22T08:38:51.413Z,9.47
2019-03-22T08:41:55.240Z,8.90
2019-03-22T08:44:58.966Z,8.37
2019-03-22T08:48:02.769Z,8.30
2019-03-22T08:51:06.860Z,8.10
2019-03-22T08:54:10.952Z,9.07
2019-03-22T08:57:14.661Z,7.40
2019-03-22T09:00:18.484Z,7.67
2019-03-22T09:03:22.298Z,7.80
2019-03-22T09:06:26.028Z,8.27
2019-03-22T09:09:40.936Z,6.67
2019-03-22T09:12:36.525Z,6.70
2019-03-22T09:15:41.381Z,5.83
2019-03-22T09:18:45.838Z,6.73
2019-03-22T09:21:50.065Z,5.80
2019-03-22T09:24:54.136Z,4.80
2019-03-22T09:27:58.048Z,5.13
2019-03-22T09:31:10.221Z,5.67
2019-03-22T09:34:07.794Z,3.27
2019-03-22T09:37:11.938Z,4.80
2019-03-22T09:40:15.651Z,4.20
2019-03-22T09:43:19.478Z,3.83
2019-03-22T09:46:23.211Z,4.23
2019-03-22T09:49:26.905Z,3.93
2019-03-22T09:52:33.598Z,5.00
2019-03-22T09:55:37.362Z,4.07
2019-03-22T09:58:41.376Z,3.83
2019-03-22T10:01:45.443Z,2.77
2019-03-22T10:04:49.140Z,2.70
2019-03-22T10:07:52.875Z,3.90
2019-03-22T10:10:57.305Z,3.23
2019-03-22T10:14:01.826Z,2.87
2019-03-22T10:17:05.610Z,2.50
2019-03-22T10:20:09.830Z,3.27
2019-03-22T10:23:14.094Z,3.23
2019-03-22T10:26:17.770Z,4.90
2019-03-22T10:29:22.405Z,3.00
2019-03-22T10:32:26.142Z,4.37
2019-03-22T10:35:29.849Z,2.43
2019-03-22T10:38:34.594Z,3.27
2019-03-22T10:41:38.396Z,3.07
2019-03-22T10:44:42.253Z,3.30
2019-03-22T10:47:46.122Z,3.47
2019-03-22T10:50:50.262Z,3.33
2019-03-22T10:53:54.813Z,3.20
2019-03-22T10:56:59.072Z,3.00
2019-03-22T11:00:03.457Z,3.67
2019-03-22T11:03:08.748Z,2.70
2019-03-22T11:06:14.082Z,2.60
2019-03-22T11:09:18.157Z,3.00
2019-03-22T11:12:21.890Z,4.43
2019-03-22T11:15:27.037Z,2.23
2019-03-22T11:18:37.272Z,3.40
2019-03-22T11:21:36.705Z,2.60
2019-03-22T11:24:41.267Z,3.30
2019-03-22T11:27:45.370Z,2.50
2019-03-22T11:30:49.536Z,2.97
2019-03-22T11:33:53.300Z,2.70
2019-03-22T11:36:57.414Z,3.47
2019-03-22T11:40:01.906Z,3.37
2019-03-22T11:43:08.981Z,4.17
2019-03-22T11:46:11.751Z,2.90
2019-03-22T11:49:15.791Z,2.77
2019-03-22T11:52:19.491Z,3.40
2019-03-22T11:55:23.219Z,3.07
2019-03-22T11:58:27.207Z,3.33
2019-03-22T12:01:30.947Z,2.80
2019-03-22T12:04:35.437Z,3.50
2019-03-22T12:07:39.140Z,2.80
2019-03-22T12:10:42.866Z,3.40
2019-03-22T12:13:46.684Z,3.37
2019-03-22T12:16:51.182Z,2.67
2019-03-22T12:19:55.320Z,3.00
2019-03-22T12:22:59.047Z,2.47
2019-03-22T12:26:04.120Z,2.93
2019-03-22T12:29:08.761Z,2.87
2019-03-22T12:32:12.799Z,2.43
2019-03-22T12:35:18.492Z,3.00
2019-03-22T12:38:22.549Z,2.20
2019-03-22T12:41:26.599Z,2.00
2019-03-22T12:44:30.670Z,2.90
2019-03-22T12:47:36.527Z,2.30
2019-03-22T12:50:40.265Z,1.93
2019-03-22T12:53:44.360Z,1.40
2019-03-22T12:56:50.021Z,1.80
2019-03-22T12:59:54.747Z,1.97
2019-03-22T13:02:58.471Z,1.60
2019-03-22T13:06:03.280Z,1.60
2019-03-22T13:09:08.700Z,1.47
2019-03-22T13:12:13.222Z,1.73
2019-03-22T13:15:16.950Z,1.87
2019-03-22T13:18:22.805Z,2.03
2019-03-22T13:21:26.513Z,1.93
2019-03-22T13:24:31.542Z,1.97
2019-03-22T13:27:35.562Z,1.83
2019-03-22T13:30:39.371Z,1.60
2019-03-22T13:33:43.884Z,1.20
2019-03-22T13:36:47.822Z,1.50
2019-03-22T13:39:51.976Z,1.80
2019-03-22T13:42:56.077Z,1.70
2019-03-22T13:46:00.179Z,1.47
2019-03-22T13:49:05.283Z,1.73
2019-03-22T13:52:08.992Z,2.23
2019-03-22T13:55:15.461Z,1.20
2019-03-22T13:58:19.291Z,1.67
2019-03-22T14:01:23.384Z,1.40
2019-03-22T14:04:27.551Z,2.00
2019-03-22T14:07:31.300Z,1.80
2019-03-22T14:10:35.581Z,1.10
2019-03-22T14:13:39.842Z,1.00
2019-03-22T14:16:43.687Z,1.37
2019-03-22T14:19:47.409Z,1.30
2019-03-22T14:22:53.834Z,1.40
2019-03-22T14:25:57.435Z,1.50
2019-03-22T14:29:01.156Z,1.20
2019-03-22T14:32:04.895Z,1.40
2019-03-22T14:35:10.790Z,1.20
2019-03-22T14:38:15.616Z,1.63
2019-03-22T14:41:19.904Z,1.60
2019-03-22T14:44:25.886Z,1.63
2019-03-22T14:47:31.564Z,2.00
2019-03-22T14:50:35.289Z,1.40
2019-03-22T14:53:38.998Z,1.27
2019-03-22T14:56:43.729Z,1.10
2019-03-22T14:59:47.791Z,1.40
2019-03-22T15:02:51.527Z,1.30
2019-03-22T15:05:56.205Z,1.40
2019-03-22T15:09:00.264Z,1.37
2019-03-22T15:12:04.064Z,1.10
2019-03-22T15:15:26.579Z,1.00
2019-03-22T15:18:53.258Z,1.00
2019-03-22T15:22:18.522Z,1.40
2019-03-22T15:25:50.921Z,0.83
2019-03-22T15:29:12.933Z,1.03
2019-03-22T15:32:28.887Z,1.17
2019-03-22T15:35:57.865Z,1.13
2019-03-22T15:42:35.568Z,1.10
2019-03-22T15:45:40.496Z,0.90
2019-03-22T15:48:45.022Z,1.00
2019-03-22T15:51:49.064Z,1.07
2019-03-22T15:54:53.237Z,0.87
2019-03-22T15:57:58.331Z,1.10
2019-03-22T16:01:02.540Z,0.90
2019-03-22T16:04:06.282Z,1.13
2019-03-22T16:07:10.699Z,1.10
2019-03-22T16:10:14.431Z,0.97
2019-03-22T16:13:18.160Z,1.00
2019-03-22T16:16:21.974Z,0.90
2019-03-22T16:19:25.687Z,1.47
2019-03-22T16:22:30.790Z,1.13
2019-03-22T16:25:34.965Z,0.97
2019-03-22T16:28:38.671Z,1.30
2019-03-22T16:31:42.951Z,0.93
2019-03-22T16:34:46.685Z,1.20
2019-03-22T16:37:51.685Z,1.20
2019-03-22T16:40:55.707Z,1.30
2019-03-22T16:43:59.414Z,1.13
2019-03-22T16:47:05.161Z,3.37
2019-03-22T16:50:22.776Z,1.23
2019-03-22T16:53:26.511Z,1.00
2019-03-22T16:56:30.972Z,1.20
2019-03-22T16:59:35.053Z,1.30
2019-03-22T17:02:38.803Z,1.00
2019-03-22T17:05:42.626Z,2.53
2019-03-22T17:08:46.348Z,1.33
2019-03-22T17:11:50.087Z,1.00
2019-03-22T17:14:53.804Z,1.03
2019-03-22T17:17:58.059Z,0.97
2019-03-22T17:21:01.793Z,1.00
2019-03-22T17:24:05.592Z,1.47
2019-03-22T17:27:10.113Z,1.30
2019-03-22T17:30:15.487Z,1.20
2019-03-22T17:33:19.651Z,1.27
2019-03-22T17:36:24.195Z,1.43
2019-03-22T17:39:28.220Z,1.90
2019-03-22T17:42:32.667Z,2.10
2019-03-22T17:45:37.260Z,1.03
2019-03-22T17:48:40.969Z,1.40
2019-03-22T17:51:44.707Z,1.63
2019-03-22T17:54:48.855Z,1.50
2019-03-22T17:57:53.904Z,1.73
2019-03-22T18:00:58.177Z,1.27
2019-03-22T18:04:01.895Z,1.87
2019-03-22T18:07:05.651Z,1.50
2019-03-22T18:10:10.670Z,2.40
2019-03-22T18:13:14.415Z,1.27
2019-03-22T18:16:18.149Z,1.50
2019-03-22T18:19:22.291Z,1.53
2019-03-22T18:22:25.982Z,1.23
2019-03-22T18:25:30.161Z,1.67
2019-03-22T18:28:34.193Z,2.40
2019-03-22T18:31:38.321Z,1.23
2019-03-22T18:34:42.040Z,1.53
2019-03-22T18:37:45.765Z,1.77
2019-03-22T18:40:49.461Z,1.83
2019-03-22T18:43:54.835Z,1.53
2019-03-22T18:46:59.280Z,1.77
2019-03-22T18:50:05.880Z,1.60
2019-03-22T18:53:09.499Z,1.70
2019-03-22T18:56:13.229Z,1.43
2019-03-22T18:59:17.327Z,2.10
2019-03-22T19:02:21.094Z,2.13
2019-03-22T19:05:25.885Z,3.00
2019-03-22T19:08:29.992Z,4.90
2019-03-22T19:11:33.704Z,3.57
2019-03-22T19:14:37.455Z,4.93
2019-03-22T19:17:41.982Z,6.40
2019-03-22T19:20:45.700Z,5.53
2019-03-22T19:23:49.444Z,4.77
2019-03-22T19:26:53.153Z,3.17
2019-03-22T19:29:56.882Z,3.23
2019-03-22T19:33:00.910Z,3.30
2019-03-22T19:36:04.650Z,2.80
2019-03-22T19:39:08.377Z,1.90
2019-03-22T19:42:12.549Z,2.40
2019-03-22T19:45:16.949Z,2.47
2019-03-22T19:48:21.430Z,1.70
2019-03-22T19:51:26.159Z,2.27
2019-03-22T19:54:31.215Z,1.10
2019-03-22T19:57:35.272Z,1.50
2019-03-22T20:00:39.785Z,1.40
2019-03-22T20:03:44.103Z,1.40
2019-03-22T20:06:47.815Z,1.70
2019-03-22T20:09:52.083Z,2.27
2019-03-22T20:12:58.316Z,1.33
2019-03-22T20:16:02.443Z,2.07
2019-03-22T20:19:06.180Z,1.33
2019-03-22T20:22:10.274Z,1.13
2019-03-22T20:25:14.818Z,1.10
2019-03-22T20:28:19.027Z,1.07
2019-03-22T20:31:22.915Z,1.83
2019-03-22T20:34:26.723Z,1.70
2019-03-22T20:37:30.557Z,2.57
2019-03-22T20:40:34.426Z,2.50
2019-03-22T20:43:38.170Z,2.03
2019-03-22T20:46:42.274Z,1.80
2019-03-22T20:49:46.338Z,2.03
2019-03-22T20:52:50.085Z,1.70
2019-03-22T20:55:56.043Z,1.00
2019-03-22T20:59:00.099Z,1.20
2019-03-22T21:02:03.832Z,1.67
2019-03-22T21:05:09.864Z,2.20
2019-03-22T21:08:14.699Z,1.60
2019-03-22T21:11:19.021Z,2.77
2019-03-22T21:14:23.025Z,1.30
2019-03-22T21:17:26.747Z,1.50
2019-03-22T21:20:30.564Z,1.73
2019-03-22T21:23:36.512Z,1.70
2019-03-22T21:26:39.935Z,2.00
2019-03-22T21:29:44.676Z,1.87
2019-03-22T21:32:48.863Z,1.70
2019-03-22T21:35:54.314Z,1.90
2019-03-22T21:38:58.035Z,1.87
2019-03-22T21:42:02.430Z,1.80
2019-03-22T21:45:06.903Z,1.80
2019-03-22T21:48:10.657Z,2.10
2019-03-22T21:51:14.820Z,2.40
2019-03-22T21:54:20.114Z,1.60
2019-03-22T21:57:23.871Z,2.40
2019-03-22T22:00:27.599Z,2.10
2019-03-22T22:03:31.956Z,1.63
2019-03-22T22:06:36.149Z,2.80
2019-03-22T22:09:40.264Z,2.60
2019-03-22T22:12:43.970Z,2.60
2019-03-22T22:15:47.696Z,3.70
2019-03-22T22:18:52.121Z,2.90
2019-03-22T22:21:55.858Z,3.30
2019-03-22T22:25:00.732Z,2.93
2019-03-22T22:28:04.447Z,2.97
2019-03-22T22:31:08.169Z,3.37
2019-03-22T22:34:11.969Z,3.97
2019-03-22T22:37:15.686Z,4.87
2019-03-22T22:40:19.948Z,3.80
2019-03-22T22:43:23.653Z,3.10
2019-03-22T22:46:27.792Z,3.80
2019-03-22T22:49:31.526Z,3.97
2019-03-22T22:52:35.566Z,5.13
2019-03-22T22:55:39.636Z,3.80
2019-03-22T22:58:43.343Z,3.97
2019-03-22T23:01:47.072Z,4.13
2019-03-22T23:04:50.830Z,3.40
2019-03-22T23:07:55.541Z,3.80
2019-03-22T23:10:59.260Z,4.17
2019-03-22T23:14:03.060Z,3.53
2019-03-22T23:17:06.908Z,3.80
2019-03-22T23:20:11.355Z,4.30
2019-03-22T23:23:15.125Z,3.37
2019-03-22T23:26:19.558Z,3.07
2019-03-22T23:29:23.367Z,2.80
2019-03-22T23:32:27.952Z,3.63
2019-03-22T23:35:34.343Z,3.03
2019-03-22T23:38:38.495Z,3.40
2019-03-22T23:41:43.727Z,3.07
2019-03-22T23:44:47.713Z,3.03
2019-03-22T23:47:52.943Z,3.63
2019-03-22T23:50:57.273Z,2.90
2019-03-22T23:54:01.351Z,5.10
2019-03-22T23:57:06.275Z,4.83
